createdAt,value
2022-10-02T00:01:33.686Z,0.90
2022-10-02T00:04:01.452Z,0.90
2022-10-02T00:06:31.632Z,0.75
2022-10-02T00:08:59.869Z,1.05
2022-10-02T00:11:28.310Z,1.13
2022-10-02T00:14:00.327Z,1.30
2022-10-02T00:16:43.849Z,1.08
2022-10-02T00:19:11.886Z,0.80
2022-10-02T00:21:41.343Z,0.90
2022-10-02T00:24:11.866Z,1.15
2022-10-02T00:26:44.798Z,1.35
2022-10-02T00:29:17.598Z,1.00
2022-10-02T00:31:45.031Z,1.15
2022-10-02T00:34:21.622Z,0.77
2022-10-02T00:37:02.181Z,1.00
2022-10-02T00:39:46.517Z,1.00
2022-10-02T00:42:31.924Z,1.15
2022-10-02T00:45:17.015Z,1.00
2022-10-02T00:47:43.656Z,0.82
2022-10-02T00:50:28.600Z,1.20
2022-10-02T00:53:14.118Z,1.27
2022-10-02T00:55:59.186Z,1.30
2022-10-02T00:58:31.610Z,1.30
2022-10-02T01:01:18.504Z,1.10
2022-10-02T01:03:53.373Z,1.25
2022-10-02T01:06:22.899Z,1.30
2022-10-02T01:08:50.019Z,0.90
2022-10-02T01:11:16.711Z,1.10
2022-10-02T01:13:44.063Z,1.40
2022-10-02T01:16:12.306Z,1.00
2022-10-02T01:18:38.958Z,1.35
2022-10-02T01:21:12.790Z,1.20
2022-10-02T01:23:45.244Z,1.20
2022-10-02T01:26:11.958Z,1.00
2022-10-02T01:28:39.021Z,1.25
2022-10-02T01:31:16.189Z,1.10
2022-10-02T01:33:43.774Z,1.10
2022-10-02T01:36:11.572Z,0.93
2022-10-02T01:38:38.938Z,1.00
2022-10-02T01:41:07.544Z,0.82
2022-10-02T01:43:39.265Z,1.00
2022-10-02T01:46:24.610Z,0.80
2022-10-02T01:48:57.132Z,1.00
2022-10-02T01:51:26.757Z,0.95
2022-10-02T01:54:15.136Z,0.82
2022-10-02T01:56:44.782Z,0.70
2022-10-02T01:59:18.835Z,0.90
2022-10-02T02:01:52.858Z,1.10
2022-10-02T02:04:24.918Z,0.77
2022-10-02T02:06:51.500Z,1.00
2022-10-02T02:09:21.088Z,1.00
2022-10-02T02:12:01.155Z,1.00
2022-10-02T02:14:30.463Z,0.82
2022-10-02T02:17:02.593Z,0.80
2022-10-02T02:19:35.186Z,0.90
2022-10-02T02:22:04.241Z,0.90
2022-10-02T02:24:30.835Z,0.80
2022-10-02T02:26:59.396Z,0.95
2022-10-02T02:29:27.679Z,0.95
2022-10-02T02:31:58.051Z,1.00
2022-10-02T02:34:46.636Z,0.75
2022-10-02T02:37:16.448Z,1.00
2022-10-02T02:39:49.110Z,1.00
2022-10-02T02:42:18.492Z,1.00
2022-10-02T02:44:50.237Z,1.10
2022-10-02T02:47:20.814Z,1.00
2022-10-02T02:49:51.574Z,0.90
2022-10-02T02:52:26.128Z,0.70
2022-10-02T02:54:56.407Z,0.75
2022-10-02T02:57:27.200Z,0.80
2022-10-02T02:59:55.782Z,1.02
2022-10-02T03:02:22.439Z,0.90
2022-10-02T03:04:49.054Z,0.63
2022-10-02T03:07:17.443Z,0.95
2022-10-02T03:09:51.287Z,0.90
2022-10-02T03:12:17.969Z,1.73
2022-10-02T03:14:44.556Z,1.20
2022-10-02T03:17:11.133Z,1.50
2022-10-02T03:19:43.818Z,1.50
2022-10-02T03:22:16.730Z,1.10
2022-10-02T03:24:52.414Z,1.33
2022-10-02T03:27:37.089Z,1.02
2022-10-02T03:30:05.549Z,1.45
2022-10-02T03:32:33.168Z,1.65
2022-10-02T03:35:00.737Z,1.25
2022-10-02T03:37:27.643Z,1.60
2022-10-02T03:39:58.131Z,1.00
2022-10-02T03:42:29.925Z,1.60
2022-10-02T03:44:56.603Z,1.45
2022-10-02T03:47:23.340Z,1.10
2022-10-02T03:49:50.283Z,1.00
2022-10-02T03:52:18.239Z,1.50
2022-10-02T03:54:45.353Z,1.10
2022-10-02T03:57:14.305Z,1.48
2022-10-02T03:59:50.366Z,1.30
2022-10-02T04:02:20.868Z,0.82
2022-10-02T04:04:51.408Z,1.20
2022-10-02T04:07:22.987Z,1.10
2022-10-02T04:10:08.463Z,1.20
2022-10-02T04:12:37.906Z,1.23
2022-10-02T04:15:16.740Z,1.02
2022-10-02T04:17:50.548Z,1.25
2022-10-02T04:20:23.527Z,1.15
2022-10-02T04:22:55.933Z,1.10
2022-10-02T04:25:25.157Z,1.00
2022-10-02T04:28:12.055Z,0.90
2022-10-02T04:30:38.679Z,0.80
2022-10-02T04:33:17.141Z,1.00
2022-10-02T04:35:59.005Z,0.80
2022-10-02T04:38:37.653Z,0.80
2022-10-02T04:41:25.691Z,0.88
2022-10-02T04:44:01.540Z,0.90
2022-10-02T04:46:28.132Z,1.10
2022-10-02T04:49:14.320Z,0.88
2022-10-02T04:51:59.814Z,1.10
2022-10-02T04:54:36.437Z,1.13
2022-10-02T04:57:20.531Z,0.98
2022-10-02T04:59:50.208Z,1.20
2022-10-02T05:02:40.013Z,1.10
2022-10-02T05:05:06.682Z,1.40
2022-10-02T05:07:39.489Z,1.10
2022-10-02T05:10:24.245Z,1.20
2022-10-02T05:12:58.301Z,1.00
2022-10-02T05:15:43.798Z,1.00
2022-10-02T05:18:12.560Z,1.10
2022-10-02T05:20:48.227Z,1.10
2022-10-02T05:23:14.874Z,1.00
2022-10-02T05:26:14.594Z,1.13
2022-10-02T05:28:41.276Z,1.02
2022-10-02T05:31:13.848Z,1.10
2022-10-02T05:33:59.080Z,1.20
2022-10-02T05:36:28.490Z,1.30
2022-10-02T05:39:02.639Z,0.82
2022-10-02T05:41:53.394Z,2.05
2022-10-02T05:44:28.488Z,1.58
2022-10-02T05:47:01.718Z,1.50
2022-10-02T05:49:35.816Z,3.15
2022-10-02T05:52:04.759Z,1.90
2022-10-02T05:54:37.712Z,1.10
2022-10-02T05:57:27.025Z,1.00
2022-10-02T05:59:53.557Z,1.02
2022-10-02T06:02:26.206Z,1.15
2022-10-02T06:04:57.404Z,0.80
2022-10-02T06:07:25.729Z,1.10
2022-10-02T06:09:58.401Z,0.82
2022-10-02T06:12:30.547Z,0.80
2022-10-02T06:15:06.729Z,0.70
2022-10-02T06:17:43.918Z,0.75
2022-10-02T06:20:19.747Z,1.02
2022-10-02T06:23:06.552Z,0.82
2022-10-02T06:25:39.257Z,1.38
2022-10-02T06:28:13.653Z,1.50
2022-10-02T06:30:41.820Z,1.75
2022-10-02T06:33:11.452Z,1.63
2022-10-02T06:35:38.096Z,1.08
2022-10-02T06:38:13.547Z,3.72
2022-10-02T06:40:46.087Z,2.28
2022-10-02T06:43:14.115Z,2.40
2022-10-02T06:45:46.889Z,1.25
2022-10-02T06:48:32.856Z,1.38
2022-10-02T06:51:05.515Z,0.80
2022-10-02T06:53:45.469Z,0.88
2022-10-02T06:56:31.154Z,0.80
2022-10-02T06:59:00.910Z,0.65
2022-10-02T07:01:47.075Z,0.70
2022-10-02T07:04:19.887Z,0.55
2022-10-02T07:07:24.805Z,0.75
2022-10-02T07:09:57.278Z,0.60
2022-10-02T07:12:32.506Z,0.65
2022-10-02T07:15:02.133Z,0.70
2022-10-02T07:17:28.695Z,0.80
2022-10-02T07:20:14.151Z,0.70
2022-10-02T07:23:09.888Z,1.00
2022-10-02T07:25:58.220Z,0.70
2022-10-02T07:28:24.925Z,0.70
2022-10-02T07:31:10.751Z,0.40
2022-10-02T07:33:58.783Z,0.75
2022-10-02T07:36:34.839Z,0.60
2022-10-02T07:39:11.385Z,0.60
2022-10-02T07:41:56.829Z,0.55
2022-10-02T07:44:26.459Z,0.50
2022-10-02T07:47:06.279Z,0.55
2022-10-02T07:49:33.171Z,0.50
2022-10-02T07:52:06.249Z,0.30
2022-10-02T07:54:52.436Z,0.60
2022-10-02T07:57:25.991Z,0.60
2022-10-02T07:59:54.695Z,0.60
2022-10-02T08:02:43.199Z,0.40
2022-10-02T08:05:17.918Z,0.50
2022-10-02T08:07:46.439Z,0.40
2022-10-02T08:10:14.002Z,0.40
2022-10-02T08:12:45.026Z,0.38
2022-10-02T08:15:17.289Z,0.40
2022-10-02T08:17:43.873Z,0.40
2022-10-02T08:20:16.786Z,0.30
2022-10-02T08:22:46.305Z,0.30
2022-10-02T08:25:12.951Z,0.30
2022-10-02T08:28:08.890Z,0.30
2022-10-02T08:30:36.304Z,0.50
2022-10-02T08:33:08.799Z,0.55
2022-10-02T08:35:51.867Z,0.28
2022-10-02T08:38:28.212Z,0.60
2022-10-02T08:41:12.933Z,0.40
2022-10-02T08:43:54.120Z,0.60
2022-10-02T08:46:58.541Z,0.30
2022-10-02T08:49:28.323Z,0.32
2022-10-02T08:51:54.930Z,0.50
2022-10-02T08:54:35.121Z,0.40
2022-10-02T08:57:17.437Z,0.30
2022-10-02T09:00:14.471Z,0.30
2022-10-02T09:03:02.235Z,0.32
2022-10-02T09:05:47.426Z,0.30
2022-10-02T09:08:43.113Z,0.50
2022-10-02T09:11:36.473Z,0.30
2022-10-02T09:14:16.939Z,0.20
2022-10-02T09:16:46.782Z,0.20
2022-10-02T09:19:19.271Z,0.20
2022-10-02T09:21:54.752Z,0.50
2022-10-02T09:24:27.512Z,0.38
2022-10-02T09:27:29.375Z,0.25
2022-10-02T09:30:14.725Z,0.30
2022-10-02T09:32:59.988Z,0.40
2022-10-02T09:35:32.633Z,0.25
2022-10-02T09:38:11.569Z,0.28
2022-10-02T09:40:56.743Z,0.40
2022-10-02T09:43:43.600Z,0.30
2022-10-02T09:46:30.503Z,0.32
2022-10-02T09:49:08.911Z,0.50
2022-10-02T09:51:42.421Z,0.60
2022-10-02T09:54:32.436Z,0.30
2022-10-02T09:57:00.448Z,0.63
2022-10-02T09:59:46.025Z,0.30
2022-10-02T10:02:32.154Z,0.40
2022-10-02T10:05:08.859Z,0.30
2022-10-02T10:07:54.414Z,0.30
2022-10-02T10:10:39.871Z,0.20
2022-10-02T10:13:32.453Z,0.40
2022-10-02T10:16:05.952Z,0.47
2022-10-02T10:18:51.361Z,0.30
2022-10-02T10:21:38.310Z,0.40
2022-10-02T10:24:23.357Z,0.40
2022-10-02T10:27:19.205Z,0.57
2022-10-02T10:29:45.841Z,0.90
2022-10-02T10:32:12.613Z,0.60
2022-10-02T10:34:58.014Z,0.57
2022-10-02T10:38:03.409Z,0.43
2022-10-02T10:40:38.408Z,0.30
2022-10-02T10:43:22.955Z,0.43
2022-10-02T10:46:08.605Z,0.50
2022-10-02T10:48:49.533Z,0.30
2022-10-02T10:51:26.212Z,0.30
2022-10-02T10:54:12.177Z,0.30
2022-10-02T10:56:38.928Z,0.40
2022-10-02T10:59:20.832Z,0.40
2022-10-02T11:01:58.847Z,0.60
2022-10-02T11:04:36.138Z,0.70
2022-10-02T11:07:07.951Z,0.50
2022-10-02T11:09:34.642Z,0.50
2022-10-02T11:12:21.756Z,0.60
2022-10-02T11:14:51.438Z,0.60
2022-10-02T11:17:36.669Z,0.40
2022-10-02T11:20:18.208Z,0.73
2022-10-02T11:22:54.642Z,0.50
2022-10-02T11:25:34.843Z,0.68
2022-10-02T11:28:21.844Z,0.50
2022-10-02T11:31:00.897Z,0.77
2022-10-02T11:33:46.059Z,0.82
2022-10-02T11:36:25.563Z,0.82
2022-10-02T11:39:04.734Z,0.90
2022-10-02T11:41:51.603Z,0.55
2022-10-02T11:44:30.895Z,0.40
2022-10-02T11:47:10.432Z,0.40
2022-10-02T11:49:51.834Z,0.40
2022-10-02T11:52:30.469Z,0.40
2022-10-02T11:55:08.107Z,0.40
2022-10-02T11:57:50.291Z,0.45
2022-10-02T12:00:39.701Z,2.35
2022-10-02T12:03:25.306Z,1.00
2022-10-02T12:05:58.028Z,2.75
2022-10-02T12:08:32.026Z,0.60
2022-10-02T12:11:10.992Z,0.60
2022-10-02T12:13:59.832Z,0.45
2022-10-02T12:16:34.444Z,0.50
2022-10-02T12:19:10.126Z,0.60
2022-10-02T12:22:10.562Z,0.57
2022-10-02T12:25:08.987Z,0.68
2022-10-02T12:27:42.817Z,0.35
2022-10-02T12:30:13.769Z,0.60
2022-10-02T12:32:40.427Z,0.75
2022-10-02T12:35:10.037Z,0.40
2022-10-02T12:37:42.698Z,0.52
2022-10-02T12:40:21.515Z,0.80
2022-10-02T12:43:06.994Z,0.80
2022-10-02T12:45:36.422Z,0.32
2022-10-02T12:48:18.379Z,0.50
2022-10-02T12:51:05.835Z,0.68
2022-10-02T12:53:51.136Z,0.50
2022-10-02T12:56:32.719Z,0.43
2022-10-02T12:59:17.587Z,0.55
2022-10-02T13:01:44.515Z,0.60
2022-10-02T13:04:29.668Z,0.40
2022-10-02T13:07:13.578Z,0.50
2022-10-02T13:10:00.291Z,0.50
2022-10-02T13:12:36.320Z,0.50
2022-10-02T13:15:04.042Z,0.50
2022-10-02T13:17:37.543Z,0.88
2022-10-02T13:20:10.640Z,0.40
2022-10-02T13:23:00.133Z,0.50
2022-10-02T13:25:38.007Z,0.55
2022-10-02T13:28:04.718Z,0.50
2022-10-02T13:30:39.876Z,1.20
2022-10-02T13:33:12.710Z,0.80
2022-10-02T13:35:51.322Z,0.60
2022-10-02T13:38:43.433Z,0.47
2022-10-02T13:41:15.879Z,0.40
2022-10-02T13:44:00.789Z,0.70
2022-10-02T13:46:33.306Z,0.50
2022-10-02T13:49:05.811Z,0.40
2022-10-02T13:51:51.405Z,0.40
2022-10-02T13:54:27.210Z,0.32
2022-10-02T13:57:09.129Z,0.38
2022-10-02T13:59:38.955Z,0.40
2022-10-02T14:02:24.504Z,0.50
2022-10-02T14:04:58.442Z,0.30
2022-10-02T14:07:28.144Z,0.30
2022-10-02T14:10:01.236Z,0.43
2022-10-02T14:12:27.820Z,0.40
2022-10-02T14:14:57.480Z,0.40
2022-10-02T14:17:24.036Z,0.30
2022-10-02T14:20:03.975Z,0.47
2022-10-02T14:22:36.749Z,0.43
2022-10-02T14:25:15.712Z,0.43
2022-10-02T14:27:57.022Z,0.20
2022-10-02T14:30:39.997Z,0.80
2022-10-02T14:33:16.376Z,0.32
2022-10-02T14:36:01.240Z,0.40
2022-10-02T14:38:27.800Z,0.68
2022-10-02T14:40:59.290Z,0.30
2022-10-02T14:43:43.360Z,0.45
2022-10-02T14:46:29.127Z,0.40
2022-10-02T14:49:05.828Z,0.52
2022-10-02T14:51:41.767Z,0.30
2022-10-02T14:54:11.887Z,0.40
2022-10-02T14:56:54.704Z,0.40
2022-10-02T14:59:30.742Z,0.38
2022-10-02T15:02:00.411Z,0.30
2022-10-02T15:04:33.164Z,0.40
2022-10-02T15:07:03.977Z,0.38
2022-10-02T15:09:49.380Z,0.28
2022-10-02T15:12:21.376Z,0.43
2022-10-02T15:14:54.436Z,0.40
2022-10-02T15:17:48.736Z,0.30
2022-10-02T15:20:34.180Z,0.40
2022-10-02T15:23:12.536Z,0.45
2022-10-02T15:25:48.108Z,0.50
2022-10-02T15:28:36.701Z,0.50
2022-10-02T15:31:30.233Z,0.30
2022-10-02T15:34:02.672Z,0.30
2022-10-02T15:36:52.494Z,0.32
2022-10-02T15:39:24.965Z,0.40
2022-10-02T15:42:03.869Z,0.45
2022-10-02T15:44:39.696Z,0.40
2022-10-02T15:47:22.015Z,0.50
2022-10-02T15:49:48.639Z,0.43
2022-10-02T15:52:18.426Z,0.47
2022-10-02T15:54:44.995Z,0.50
2022-10-02T15:57:29.803Z,0.60
2022-10-02T16:00:03.582Z,0.60
2022-10-02T16:03:01.209Z,0.70
2022-10-02T16:05:51.163Z,0.50
2022-10-02T16:08:23.928Z,0.60
2022-10-02T16:11:03.474Z,0.50
2022-10-02T16:13:29.970Z,1.00
2022-10-02T16:16:00.294Z,0.50
2022-10-02T16:18:50.412Z,0.57
2022-10-02T16:21:37.722Z,0.43
2022-10-02T16:24:04.381Z,0.70
2022-10-02T16:26:49.936Z,0.50
2022-10-02T16:29:34.753Z,0.60
2022-10-02T16:32:19.897Z,0.60
2022-10-02T16:35:07.622Z,0.70
2022-10-02T16:37:45.095Z,0.70
2022-10-02T16:40:22.567Z,0.70
2022-10-02T16:42:53.518Z,0.77
2022-10-02T16:45:23.854Z,0.50
2022-10-02T16:47:53.523Z,0.60
2022-10-02T16:50:25.263Z,0.80
2022-10-02T16:52:54.940Z,0.50
2022-10-02T16:55:42.553Z,0.55
2022-10-02T16:58:12.349Z,0.60
2022-10-02T17:00:41.534Z,0.63
2022-10-02T17:03:28.931Z,0.70
2022-10-02T17:06:27.879Z,0.80
2022-10-02T17:09:02.693Z,0.70
2022-10-02T17:11:34.710Z,1.02
2022-10-02T17:14:18.269Z,0.60
2022-10-02T17:16:47.730Z,0.60
2022-10-02T17:19:20.987Z,0.40
2022-10-02T17:21:50.523Z,0.65
2022-10-02T17:24:19.811Z,0.73
2022-10-02T17:26:52.296Z,0.60
2022-10-02T17:29:27.881Z,0.75
2022-10-02T17:31:58.946Z,0.50
2022-10-02T17:34:26.957Z,0.50
2022-10-02T17:37:04.736Z,0.68
2022-10-02T17:39:49.876Z,0.90
2022-10-02T17:42:35.308Z,0.60
2022-10-02T17:45:18.247Z,0.88
2022-10-02T17:47:44.941Z,0.93
2022-10-02T17:50:11.500Z,0.80
2022-10-02T17:53:03.777Z,0.73
2022-10-02T17:55:55.494Z,0.60
2022-10-02T17:58:23.332Z,0.85
2022-10-02T18:01:10.221Z,0.70
2022-10-02T18:03:55.278Z,0.60
2022-10-02T18:06:38.680Z,0.70
2022-10-02T18:09:11.313Z,0.60
2022-10-02T18:11:50.043Z,0.90
2022-10-02T18:14:23.702Z,0.70
2022-10-02T18:17:06.495Z,0.70
2022-10-02T18:19:42.173Z,0.57
2022-10-02T18:22:17.865Z,0.50
2022-10-02T18:24:52.018Z,0.73
2022-10-02T18:27:27.790Z,0.50
2022-10-02T18:30:14.675Z,1.00
2022-10-02T18:32:55.570Z,0.60
2022-10-02T18:35:22.329Z,0.43
2022-10-02T18:37:57.220Z,0.60
2022-10-02T18:40:31.067Z,0.45
2022-10-02T18:43:26.950Z,0.52
2022-10-02T18:45:56.445Z,0.60
2022-10-02T18:48:23.034Z,0.60
2022-10-02T18:50:49.611Z,0.77
2022-10-02T18:53:41.023Z,0.70
2022-10-02T18:56:08.420Z,0.68
2022-10-02T18:58:50.497Z,0.40
2022-10-02T19:01:30.762Z,0.40
2022-10-02T19:03:57.495Z,0.50
2022-10-02T19:06:26.753Z,0.55
2022-10-02T19:09:08.656Z,0.30
2022-10-02T19:11:42.193Z,0.40
2022-10-02T19:14:35.206Z,0.50
2022-10-02T19:17:08.718Z,0.30
2022-10-02T19:19:36.861Z,0.50
2022-10-02T19:22:30.256Z,0.60
2022-10-02T19:25:05.171Z,0.30
2022-10-02T19:27:33.391Z,0.77
2022-10-02T19:30:07.423Z,0.55
2022-10-02T19:32:41.289Z,0.30
2022-10-02T19:35:40.498Z,0.30
2022-10-02T19:38:22.154Z,0.63
2022-10-02T19:40:55.792Z,0.40
2022-10-02T19:43:26.694Z,0.63
2022-10-02T19:45:57.223Z,0.30
2022-10-02T19:48:28.536Z,0.40
2022-10-02T19:51:17.013Z,0.40
2022-10-02T19:53:51.168Z,0.50
2022-10-02T19:56:24.304Z,0.45
2022-10-02T19:58:52.072Z,0.50
2022-10-02T20:01:19.675Z,0.80
2022-10-02T20:03:48.316Z,0.60
2022-10-02T20:06:21.063Z,0.50
2022-10-02T20:09:11.020Z,0.57
2022-10-02T20:11:45.319Z,0.50
2022-10-02T20:14:15.487Z,0.60
2022-10-02T20:17:00.609Z,0.43
2022-10-02T20:19:28.685Z,0.60
2022-10-02T20:21:56.102Z,0.40
2022-10-02T20:24:35.029Z,0.55
2022-10-02T20:27:22.107Z,0.60
2022-10-02T20:29:52.679Z,0.50
2022-10-02T20:32:26.068Z,0.50
2022-10-02T20:35:22.280Z,0.70
2022-10-02T20:37:49.422Z,0.40
2022-10-02T20:40:23.136Z,0.50
2022-10-02T20:43:01.737Z,0.57
2022-10-02T20:45:37.132Z,0.50
2022-10-02T20:48:07.266Z,0.70
2022-10-02T20:50:40.491Z,0.70
2022-10-02T20:53:07.085Z,0.77
2022-10-02T20:55:39.835Z,0.75
2022-10-02T20:58:25.457Z,0.52
2022-10-02T21:00:52.004Z,0.43
2022-10-02T21:03:21.682Z,0.50
2022-10-02T21:06:08.350Z,0.45
2022-10-02T21:08:53.622Z,0.45
2022-10-02T21:11:38.858Z,0.35
2022-10-02T21:14:05.470Z,0.63
2022-10-02T21:16:35.267Z,0.50
2022-10-02T21:19:21.188Z,0.40
2022-10-02T21:21:53.745Z,0.45
2022-10-02T21:24:42.016Z,0.30
2022-10-02T21:27:17.631Z,0.20
2022-10-02T21:29:44.300Z,0.30
2022-10-02T21:32:40.231Z,0.40
2022-10-02T21:35:16.542Z,0.30
2022-10-02T21:37:51.602Z,0.43
2022-10-02T21:40:27.237Z,0.30
2022-10-02T21:43:17.703Z,0.20
2022-10-02T21:45:44.400Z,0.30
2022-10-02T21:48:20.269Z,0.30
2022-10-02T21:51:17.227Z,0.20
2022-10-02T21:54:02.710Z,0.47
2022-10-02T21:56:52.371Z,0.20
2022-10-02T21:59:32.101Z,0.20
2022-10-02T22:02:18.392Z,0.20
2022-10-02T22:04:44.964Z,0.25
2022-10-02T22:07:21.997Z,0.20
2022-10-02T22:10:02.218Z,0.20
2022-10-02T22:12:28.792Z,0.20
2022-10-02T22:15:10.686Z,0.28
2022-10-02T22:18:06.675Z,0.20
2022-10-02T22:20:52.166Z,0.30
2022-10-02T22:23:18.807Z,0.20
2022-10-02T22:25:55.533Z,0.20
2022-10-02T22:28:25.110Z,0.10
2022-10-02T22:30:54.775Z,0.38
2022-10-02T22:33:27.351Z,0.20
2022-10-02T22:35:53.891Z,0.13
2022-10-02T22:38:20.486Z,0.20
2022-10-02T22:40:52.921Z,0.20
2022-10-02T22:43:29.123Z,0.28
2022-10-02T22:45:59.447Z,0.20
2022-10-02T22:48:35.257Z,0.30
2022-10-02T22:51:11.947Z,0.20
2022-10-02T22:53:41.532Z,0.30
2022-10-02T22:56:22.946Z,0.25
2022-10-02T22:58:57.917Z,0.20
2022-10-02T23:01:28.607Z,0.20
2022-10-02T23:04:00.253Z,0.30
2022-10-02T23:06:33.251Z,0.20
2022-10-02T23:09:06.112Z,0.20
2022-10-02T23:11:40.308Z,0.10
2022-10-02T23:14:15.024Z,0.20
2022-10-02T23:16:44.898Z,0.30
2022-10-02T23:19:14.630Z,0.10
2022-10-02T23:21:54.821Z,0.20
2022-10-02T23:24:24.242Z,0.20
2022-10-02T23:27:02.952Z,0.10
2022-10-02T23:29:59.286Z,0.30
2022-10-02T23:32:26.932Z,0.10
2022-10-02T23:35:12.838Z,0.20
2022-10-02T23:37:39.473Z,0.10
2022-10-02T23:40:20.038Z,0.20
2022-10-02T23:42:52.126Z,0.10
2022-10-02T23:45:26.766Z,0.30
2022-10-02T23:48:00.654Z,0.20
2022-10-02T23:50:48.131Z,0.20
2022-10-02T23:53:44.164Z,0.22
2022-10-02T23:56:12.003Z,0.17
2022-10-02T23:58:56.947Z,0.15
